createdAt,value
2022-08-07T00:01:12.685Z,102186.41
2022-08-07T00:06:29.462Z,102184.63
2022-08-07T00:11:35.917Z,102185.53
2022-08-07T00:16:50.525Z,102187.22
2022-08-07T00:21:57.508Z,102183.59
2022-08-07T00:27:07.316Z,102185.28
2022-08-07T00:32:11.009Z,102184.38
2022-08-07T00:37:17.116Z,102182.63
2022-08-07T00:42:19.203Z,102175.44
2022-08-07T00:48:08.829Z,102174.56
2022-08-07T00:52:56.079Z,102177.06
2022-08-07T00:57:58.229Z,102175.16
2022-08-07T01:03:00.284Z,102176.91
2022-08-07T01:08:04.879Z,102174.19
2022-08-07T01:13:11.162Z,102173.16
2022-08-07T01:18:18.637Z,102179.41
2022-08-07T01:23:25.452Z,102182.91
2022-08-07T01:28:39.889Z,102175.56
2022-08-07T01:33:55.429Z,102184.00
2022-08-07T01:39:09.559Z,102180.44
2022-08-07T01:44:13.184Z,102179.50
2022-08-07T01:49:15.498Z,102183.97
2022-08-07T01:54:33.200Z,102189.19
2022-08-07T01:59:45.217Z,102174.25
2022-08-07T02:04:56.273Z,102184.78
2022-08-07T02:10:01.977Z,102183.00
2022-08-07T02:15:06.906Z,102181.25
2022-08-07T02:20:17.154Z,102173.13
2022-08-07T02:25:21.431Z,102164.19
2022-08-07T02:30:44.835Z,102176.47
2022-08-07T02:36:30.214Z,102176.47
2022-08-07T02:41:21.578Z,102171.88
2022-08-07T02:46:26.618Z,102174.25
2022-08-07T02:51:42.429Z,102165.31
2022-08-07T02:57:00.215Z,102172.44
2022-08-07T03:02:03.356Z,102173.22
2022-08-07T03:07:10.656Z,102169.75
2022-08-07T03:12:22.702Z,102181.22
2022-08-07T03:17:36.306Z,102181.97
2022-08-07T03:22:57.495Z,102168.69
2022-08-07T03:28:09.755Z,102173.94
2022-08-07T03:33:32.324Z,102172.03
2022-08-07T03:38:45.246Z,102178.19
2022-08-07T03:43:57.354Z,102175.59
2022-08-07T03:49:02.584Z,102186.09
2022-08-07T03:54:35.819Z,102181.69
2022-08-07T03:59:30.168Z,102185.19
2022-08-07T04:04:32.791Z,102188.66
2022-08-07T04:09:45.365Z,102181.63
2022-08-07T04:14:56.337Z,102189.78
2022-08-07T04:19:58.411Z,102192.56
2022-08-07T04:25:01.981Z,102198.75
2022-08-07T04:30:11.787Z,102199.75
2022-08-07T04:35:16.012Z,102194.72
2022-08-07T04:40:18.197Z,102205.53
2022-08-07T04:45:57.793Z,102195.25
2022-08-07T04:51:00.265Z,102207.41
2022-08-07T04:58:10.762Z,102207.56
2022-08-07T05:01:42.973Z,102199.41
2022-08-07T05:06:53.510Z,102206.44
2022-08-07T05:11:56.778Z,102203.06
2022-08-07T05:17:05.977Z,102202.69
2022-08-07T05:22:19.047Z,102201.59
2022-08-07T05:28:16.662Z,102208.16
2022-08-07T05:32:55.595Z,102208.38
2022-08-07T05:38:09.043Z,102209.53
2022-08-07T05:43:12.364Z,102217.78
2022-08-07T05:48:18.089Z,102213.97
2022-08-07T05:54:13.869Z,102217.47
2022-08-07T05:58:52.722Z,102226.72
2022-08-07T06:04:01.147Z,102223.47
2022-08-07T06:09:05.218Z,102221.75
2022-08-07T06:14:12.182Z,102232.34
2022-08-07T06:19:58.199Z,102236.03
2022-08-07T06:24:56.856Z,102225.66
2022-08-07T06:30:01.181Z,102216.41
2022-08-07T06:35:17.605Z,102226.81
2022-08-07T06:40:21.252Z,102229.06
2022-08-07T06:45:24.811Z,102225.56
2022-08-07T06:50:31.009Z,102236.31
2022-08-07T06:56:00.451Z,102231.84
2022-08-07T07:00:58.822Z,102230.03
2022-08-07T07:06:06.293Z,102222.03
2022-08-07T07:12:09.713Z,102226.06
2022-08-07T07:16:49.780Z,102224.66
2022-08-07T07:22:05.348Z,102232.00
2022-08-07T07:27:20.393Z,102227.44
2022-08-07T07:32:25.007Z,102210.09
2022-08-07T07:37:47.164Z,102222.56
2022-08-07T07:42:55.585Z,102214.16
2022-08-07T07:47:59.860Z,102208.22
2022-08-07T07:53:04.397Z,102202.50
2022-08-07T07:58:06.654Z,102199.44
2022-08-07T08:03:16.573Z,102193.97
2022-08-07T08:08:35.058Z,102195.03
2022-08-07T08:13:54.348Z,102185.81
2022-08-07T08:19:00.458Z,102173.38
2022-08-07T08:24:36.183Z,102175.34
2022-08-07T08:29:54.219Z,102176.69
2022-08-07T08:34:58.620Z,102180.44
2022-08-07T08:40:03.074Z,102172.50
2022-08-07T08:45:13.465Z,102169.03
2022-08-07T08:50:28.427Z,102172.13
2022-08-07T08:55:58.591Z,102166.63
2022-08-07T09:01:15.197Z,102167.31
2022-08-07T09:06:32.983Z,102167.22
2022-08-07T09:11:50.673Z,102168.06
2022-08-07T09:17:07.604Z,102165.38
2022-08-07T09:24:28.519Z,102161.91
2022-08-07T09:28:00.121Z,102158.63
2022-08-07T09:33:16.903Z,102145.06
2022-08-07T09:38:50.108Z,102142.38
2022-08-07T09:44:10.215Z,102145.78
2022-08-07T09:50:02.396Z,102126.94
2022-08-07T09:55:16.890Z,102120.13
2022-08-07T10:00:29.744Z,102114.50
2022-08-07T10:06:10.584Z,102109.31
2022-08-07T10:12:01.204Z,102114.41
2022-08-07T10:17:33.936Z,102094.56
2022-08-07T10:23:11.886Z,102073.22
2022-08-07T10:28:49.396Z,102071.22
2022-08-07T10:34:15.276Z,102070.53
2022-08-07T10:39:41.583Z,102060.91
2022-08-07T10:45:02.980Z,102063.34
2022-08-07T10:50:15.148Z,102050.13
2022-08-07T10:55:36.904Z,102043.22
2022-08-07T11:00:50.433Z,102037.44
2022-08-07T11:06:06.078Z,102035.00
2022-08-07T11:11:14.046Z,102027.75
2022-08-07T11:16:21.577Z,102024.72
2022-08-07T11:21:43.054Z,102033.75
2022-08-07T11:26:50.908Z,102016.41
2022-08-07T11:32:01.101Z,102011.75
2022-08-07T11:37:13.241Z,102018.81
2022-08-07T11:42:20.911Z,102005.38
2022-08-07T11:47:56.575Z,101999.75
2022-08-07T11:53:21.911Z,101996.78
2022-08-07T11:58:38.428Z,101990.44
2022-08-07T12:04:08.830Z,101979.31
2022-08-07T12:09:22.923Z,101968.84
2022-08-07T12:14:30.149Z,101968.78
2022-08-07T12:20:02.690Z,101961.75
2022-08-07T12:26:00.223Z,101961.25
2022-08-07T12:30:40.623Z,101963.84
2022-08-07T12:35:58.222Z,101960.59
2022-08-07T12:41:03.716Z,101949.47
2022-08-07T12:46:26.399Z,101936.09
2022-08-07T12:51:51.302Z,101933.59
2022-08-07T12:57:07.445Z,101937.63
2022-08-07T13:02:35.979Z,101928.03
2022-08-07T13:08:14.006Z,101927.25
2022-08-07T13:13:46.703Z,101925.09
2022-08-07T13:18:56.894Z,101919.41
2022-08-07T13:24:07.085Z,101907.28
2022-08-07T13:29:20.727Z,101908.16
2022-08-07T13:34:35.870Z,101905.00
2022-08-07T13:40:33.506Z,101907.78
2022-08-07T13:46:06.390Z,101905.66
2022-08-07T13:51:00.242Z,101898.31
2022-08-07T13:56:01.060Z,101891.72
2022-08-07T14:01:13.776Z,101885.66
2022-08-07T14:06:16.404Z,101882.13
2022-08-07T14:11:22.364Z,101867.44
2022-08-07T14:16:33.335Z,101873.31
2022-08-07T14:22:01.696Z,101860.53
2022-08-07T14:28:11.657Z,101852.28
2022-08-07T14:32:41.013Z,101856.91
2022-08-07T14:37:46.027Z,101845.72
2022-08-07T14:43:57.645Z,101844.97
2022-08-07T14:48:36.066Z,101842.91
2022-08-07T14:54:09.847Z,101831.63
2022-08-07T14:59:14.101Z,101838.63
2022-08-07T15:04:33.553Z,101831.97
2022-08-07T15:09:59.769Z,101828.94
2022-08-07T15:20:54.623Z,101824.94
2022-08-07T15:25:57.292Z,101815.91
2022-08-07T15:31:04.749Z,101804.94
2022-08-07T15:36:09.650Z,101798.13
2022-08-07T15:41:23.696Z,101805.88
2022-08-07T15:46:51.650Z,101806.53
2022-08-07T15:57:00.609Z,101795.00
2022-08-07T16:02:04.881Z,101796.81
2022-08-07T16:08:30.324Z,101790.09
2022-08-07T16:13:01.115Z,101792.22
2022-08-07T16:18:49.584Z,101796.50
2022-08-07T16:23:58.755Z,101789.75
2022-08-07T16:30:08.246Z,101789.22
2022-08-07T16:34:48.156Z,101778.75
2022-08-07T16:40:28.149Z,101776.22
2022-08-07T16:46:34.670Z,101774.97
2022-08-07T16:51:54.024Z,101790.41
2022-08-07T16:57:07.004Z,101785.56
2022-08-07T17:02:51.235Z,101782.84
2022-08-07T17:07:59.261Z,101785.44
2022-08-07T17:13:41.600Z,101788.84
2022-08-07T17:19:15.779Z,101782.72
2022-08-07T17:24:35.814Z,101781.50
2022-08-07T17:30:15.731Z,101782.84
2022-08-07T17:35:50.945Z,101789.25
2022-08-07T17:42:01.057Z,101777.47
2022-08-07T17:46:36.165Z,101784.38
2022-08-07T17:52:00.790Z,101783.16
2022-08-07T17:57:18.936Z,101793.63
2022-08-07T18:02:30.056Z,101785.16
2022-08-07T18:07:43.885Z,101784.47
2022-08-07T18:13:34.034Z,101783.03
2022-08-07T18:21:03.778Z,101776.16
2022-08-07T18:24:33.064Z,101787.13
2022-08-07T18:30:08.444Z,101780.50
2022-08-07T18:35:22.594Z,101784.72
2022-08-07T18:40:42.768Z,101799.91
2022-08-07T18:46:25.140Z,101806.78
2022-08-07T18:52:34.001Z,101799.94
2022-08-07T18:57:29.702Z,101802.34
2022-08-07T19:02:36.899Z,101819.31
2022-08-07T19:07:57.472Z,101819.09
2022-08-07T19:13:09.895Z,101811.50
2022-08-07T19:18:34.577Z,101822.19
2022-08-07T19:23:58.990Z,101829.50
2022-08-07T19:31:03.821Z,101826.69
2022-08-07T19:34:32.502Z,101826.47
2022-08-07T19:39:56.126Z,101827.94
2022-08-07T19:45:08.677Z,101833.16
2022-08-07T19:50:41.325Z,101842.94
2022-08-07T19:55:57.615Z,101854.50
2022-08-07T20:00:57.976Z,101842.56
2022-08-07T20:06:02.530Z,101847.50
2022-08-07T20:11:12.146Z,101850.56
2022-08-07T20:16:35.277Z,101845.47
2022-08-07T20:21:42.067Z,101854.97
2022-08-07T20:26:55.875Z,101857.97
2022-08-07T20:32:01.400Z,101860.03
2022-08-07T20:37:05.726Z,101854.34
2022-08-07T20:42:12.600Z,101859.31
2022-08-07T20:47:25.197Z,101863.06
2022-08-07T20:52:50.751Z,101860.41
2022-08-07T20:58:02.422Z,101874.13
2022-08-07T21:03:08.067Z,101871.03
2022-08-07T21:08:14.514Z,101866.69
2022-08-07T21:13:24.686Z,101868.63
2022-08-07T21:18:46.378Z,101874.97
2022-08-07T21:24:02.077Z,101867.94
2022-08-07T21:29:15.635Z,101870.72
2022-08-07T21:34:26.497Z,101874.38
2022-08-07T21:39:47.202Z,101878.16
2022-08-07T21:44:57.801Z,101872.91
2022-08-07T21:50:08.507Z,101873.03
2022-08-07T21:55:30.210Z,101875.75
2022-08-07T22:00:37.257Z,101880.59
2022-08-07T22:05:49.747Z,101877.25
2022-08-07T22:10:55.277Z,101877.47
2022-08-07T22:16:44.688Z,101884.66
2022-08-07T22:22:01.887Z,101881.94
2022-08-07T22:27:06.803Z,101883.03
2022-08-07T22:32:20.548Z,101881.38
2022-08-07T22:38:04.664Z,101879.59
2022-08-07T22:42:59.245Z,101882.41
2022-08-07T22:48:56.068Z,101880.75
2022-08-07T22:54:07.080Z,101878.06
2022-08-07T22:59:35.455Z,101881.69
2022-08-07T23:04:58.031Z,101885.34
2022-08-07T23:10:36.363Z,101882.75
2022-08-07T23:16:06.215Z,101894.44
2022-08-07T23:21:30.443Z,101894.50
2022-08-07T23:26:55.075Z,101883.00
2022-08-07T23:34:18.859Z,101887.47
2022-08-07T23:38:01.366Z,101889.31
2022-08-07T23:43:20.909Z,101890.19
2022-08-07T23:48:50.273Z,101892.91
2022-08-07T23:54:03.300Z,101883.13
